Time;durP1;ratioP1;P1;durP2;ratioP2;P2;SDS_P1;SDS_P2;PMS_P1;PMS_P2;Temp;Humidity;BMP_temperature;BMP_pressure;BME280_temperature;BME280_humidity;BME280_pressure;Samples;Min_cycle;Max_cycle;Signal;HPM_P1;HPM_P2
2023/02/08 00:01:13;;;;;;;20.75;10.00;;;;;;;;;;5044715;28;20036;-83
2023/02/08 00:03:39;;;;;;;25.63;10.55;;;;;;;;;;5028931;28;20048;-85
2023/02/08 00:06:06;;;;;;;21.58;11.05;;;;;;;;;;5031563;28;20030;-84
2023/02/08 00:08:32;;;;;;;20.73;10.98;;;;;;;;;;5040344;28;20032;-84
2023/02/08 00:10:58;;;;;;;22.90;11.30;;;;;;;;;;5044075;28;20034;-84
2023/02/08 00:13:24;;;;;;;22.50;12.07;;;;;;;;;;5039570;28;20077;-84
2023/02/08 00:15:51;;;;;;;23.88;11.20;;;;;;;;;;5037826;28;20157;-83
2023/02/08 00:18:17;;;;;;;27.38;10.90;;;;;;;;;;5044529;28;20431;-83
2023/02/08 00:20:43;;;;;;;21.38;11.35;;;;;;;;;;5038433;28;20053;-84
2023/02/08 00:23:10;;;;;;;24.77;11.75;;;;;;;;;;5036548;28;20028;-83
2023/02/08 00:25:36;;;;;;;21.35;10.93;;;;;;;;;;5033804;28;20020;-83
2023/02/08 00:28:02;;;;;;;25.15;11.40;;;;;;;;;;5042036;28;20534;-83
2023/02/08 00:30:28;;;;;;;22.15;10.77;;;;;;;;;;5040763;28;20025;-85
2023/02/08 00:32:54;;;;;;;23.10;11.20;;;;;;;;;;5036572;28;20257;-84
2023/02/08 00:35:20;;;;;;;18.23;9.68;;;;;;;;;;5033397;28;20033;-84
2023/02/08 00:37:46;;;;;;;21.90;11.13;;;;;;;;;;5035874;28;20032;-84
2023/02/08 00:40:12;;;;;;;23.83;11.52;;;;;;;;;;5031705;28;20029;-85
2023/02/08 00:42:38;;;;;;;22.73;10.52;;;;;;;;;;5044110;28;20524;-83
2023/02/08 00:45:04;;;;;;;23.73;12.13;;;;;;;;;;5036278;28;20038;-83
2023/02/08 00:47:30;;;;;;;20.27;10.88;;;;;;;;;;5041264;28;20024;-83
2023/02/08 00:49:56;;;;;;;19.85;11.07;;;;;;;;;;5029884;28;20025;-85
2023/02/08 00:52:25;;;;;;;22.20;11.02;;;;;;;;;;5043552;28;20029;-84
2023/02/08 00:54:51;;;;;;;22.15;11.45;;;;;;;;;;5037226;28;20041;-83
2023/02/08 00:57:20;;;;;;;24.42;11.32;;;;;;;;;;5037752;28;20028;-84
2023/02/08 00:59:46;;;;;;;22.38;11.48;;;;;;;;;;5037521;28;20060;-84
2023/02/08 01:02:12;;;;;;;19.08;9.85;;;;;;;;;;5041641;28;20044;-84
2023/02/08 01:04:38;;;;;;;24.75;11.38;;;;;;;;;;5039445;28;20097;-84
2023/02/08 01:07:05;;;;;;;23.80;11.05;;;;;;;;;;5040255;28;20025;-83
2023/02/08 01:09:31;;;;;;;18.33;9.10;;;;;;;;;;5039323;28;20133;-83
2023/02/08 01:11:57;;;;;;;33.03;10.23;;;;;;;;;;5028465;28;20060;-83
2023/02/08 01:14:26;;;;;;;20.75;11.00;;;;;;;;;;5029332;28;20505;-84
2023/02/08 01:16:52;;;;;;;19.25;9.88;;;;;;;;;;5030449;28;20033;-83
2023/02/08 01:19:18;;;;;;;24.10;10.75;;;;;;;;;;5033067;28;20025;-84
2023/02/08 01:21:44;;;;;;;18.40;9.70;;;;;;;;;;5038157;28;20083;-83
2023/02/08 01:24:16;;;;;;;17.50;9.20;;;;;;;;;;5040378;28;20412;-84
2023/02/08 01:26:45;;;;;;;18.05;9.60;;;;;;;;;;5032760;28;20033;-84
2023/02/08 01:29:11;;;;;;;17.45;9.25;;;;;;;;;;5029113;28;20234;-84
2023/02/08 01:31:38;;;;;;;20.20;10.57;;;;;;;;;;5034052;28;20025;-83
2023/02/08 01:34:14;;;;;;;17.63;9.32;;;;;;;;;;5030970;28;20029;-82
2023/02/08 01:36:49;;;;;;;23.83;10.25;;;;;;;;;;5032354;28;20472;-83
2023/02/08 01:39:15;;;;;;;16.30;8.77;;;;;;;;;;5032244;28;20037;-83
2023/02/08 01:41:45;;;;;;;22.88;9.90;;;;;;;;;;4987946;28;1163862;-83
2023/02/08 01:44:16;;;;;;;25.35;10.25;;;;;;;;;;5028977;28;20025;-83
2023/02/08 01:46:50;;;;;;;18.33;9.57;;;;;;;;;;5033723;28;20039;-83
2023/02/08 01:52:19;;;;;;;25.52;10.63;;;;;;;;;;5026141;28;20033;-83
2023/02/08 01:54:51;;;;;;;19.13;10.35;;;;;;;;;;5030081;28;20029;-82
2023/02/08 01:57:24;;;;;;;20.17;9.23;;;;;;;;;;5036152;28;20029;-82
2023/02/08 01:59:58;;;;;;;16.05;9.25;;;;;;;;;;5029749;28;20037;-82
2023/02/08 02:02:24;;;;;;;17.35;9.45;;;;;;;;;;5036168;28;20112;-82
2023/02/08 02:04:51;;;;;;;21.45;9.25;;;;;;;;;;5043135;28;20111;-83
2023/02/08 02:07:18;;;;;;;19.08;9.63;;;;;;;;;;5036170;28;20078;-82
2023/02/08 02:09:49;;;;;;;18.63;9.82;;;;;;;;;;5030149;28;20045;-83
2023/02/08 02:12:18;;;;;;;20.77;9.65;;;;;;;;;;5040398;28;20021;-83
2023/02/08 02:14:45;;;;;;;17.65;10.18;;;;;;;;;;5031486;28;20041;-83
2023/02/08 02:17:16;;;;;;;19.50;9.30;;;;;;;;;;5033587;28;20115;-83
2023/02/08 02:19:58;;;;;;;16.73;8.90;;;;;;;;;;5028897;28;20552;-82
2023/02/08 02:22:42;;;;;;;17.95;9.40;;;;;;;;;;5039721;28;20048;-82
2023/02/08 02:25:34;;;;;;;19.92;9.52;;;;;;;;;;5027868;28;20060;-82
2023/02/08 02:28:16;;;;;;;18.10;8.95;;;;;;;;;;5039355;28;20078;-83
2023/02/08 02:30:57;;;;;;;23.83;8.77;;;;;;;;;;5042337;28;20028;-83
2023/02/08 02:33:46;;;;;;;18.90;8.32;;;;;;;;;;5030781;28;20029;-83
2023/02/08 02:36:15;;;;;;;18.67;9.05;;;;;;;;;;5011596;28;20045;-82
2023/02/08 02:38:50;;;;;;;17.20;8.43;;;;;;;;;;5031835;28;20068;-83
2023/02/08 02:44:28;;;;;;;19.65;8.85;;;;;;;;;;5031911;28;20547;-82
2023/02/08 02:47:00;;;;;;;19.80;9.60;;;;;;;;;;5043431;28;20055;-82
2023/02/08 02:49:36;;;;;;;23.15;9.38;;;;;;;;;;5027732;28;20445;-82
2023/02/08 02:52:05;;;;;;;17.17;9.30;;;;;;;;;;5029699;28;20083;-82
2023/02/08 02:54:38;;;;;;;19.73;9.77;;;;;;;;;;5036678;28;20021;-84
2023/02/08 02:57:06;;;;;;;20.33;10.23;;;;;;;;;;5041509;28;20056;-83
2023/02/08 02:59:33;;;;;;;15.73;8.55;;;;;;;;;;5029139;28;20104;-83
2023/02/08 03:01:59;;;;;;;17.67;9.05;;;;;;;;;;5036735;28;20031;-83
2023/02/08 03:04:34;;;;;;;19.00;9.48;;;;;;;;;;5034474;28;20018;-82
2023/02/08 03:07:18;;;;;;;18.40;9.02;;;;;;;;;;5048531;28;20438;-82
2023/02/08 03:09:49;;;;;;;18.15;9.50;;;;;;;;;;5034567;28;20041;-84
2023/02/08 03:12:15;;;;;;;20.52;9.07;;;;;;;;;;5049088;28;20032;-85
2023/02/08 03:14:53;;;;;;;22.13;10.25;;;;;;;;;;5035160;28;20132;-82
2023/02/08 03:17:19;;;;;;;18.20;9.55;;;;;;;;;;5030459;28;20030;-83
2023/02/08 03:19:47;;;;;;;18.67;9.60;;;;;;;;;;5037834;28;20400;-83
2023/02/08 03:22:22;;;;;;;24.17;9.93;;;;;;;;;;5040340;28;20017;-84
2023/02/08 03:24:55;;;;;;;18.77;8.75;;;;;;;;;;5029592;28;20029;-83
2023/02/08 03:27:21;;;;;;;19.73;9.68;;;;;;;;;;5042593;28;20025;-83
2023/02/08 03:30:02;;;;;;;18.65;9.38;;;;;;;;;;5047797;28;20032;-84
2023/02/08 03:32:38;;;;;;;23.08;9.98;;;;;;;;;;5041642;28;20434;-83
2023/02/08 03:35:21;;;;;;;20.17;9.93;;;;;;;;;;5043317;28;20033;-83
2023/02/08 03:37:53;;;;;;;19.55;9.52;;;;;;;;;;5035156;28;20108;-83
2023/02/08 03:40:24;;;;;;;19.92;9.45;;;;;;;;;;5044510;28;20091;-82
2023/02/08 03:42:50;;;;;;;;;;;;;;;;;;5044227;28;20067;-82
2023/02/08 03:45:28;;;;;;;21.17;9.27;;;;;;;;;;5043002;28;20364;-83
2023/02/08 03:48:04;;;;;;;20.67;9.18;;;;;;;;;;5043803;28;20017;-83
2023/02/08 03:50:31;;;;;;;18.92;8.88;;;;;;;;;;5035516;28;20030;-83
2023/02/08 03:52:58;;;;;;;18.40;8.77;;;;;;;;;;5034614;28;20049;-84
2023/02/08 03:55:29;;;;;;;21.55;9.95;;;;;;;;;;5041294;28;20710;-83
2023/02/08 03:58:00;;;;;;;19.60;8.55;;;;;;;;;;5040299;28;20022;-83
2023/02/08 04:00:28;;;;;;;16.13;8.35;;;;;;;;;;5029945;28;20072;-82
2023/02/08 04:03:01;;;;;;;17.33;8.75;;;;;;;;;;5032884;28;20025;-82
2023/02/08 04:05:28;;;;;;;15.77;8.68;;;;;;;;;;5019076;28;20508;-82
2023/02/08 04:07:53;;;;;;;17.70;9.35;;;;;;;;;;5046718;28;20441;-83
2023/02/08 04:10:20;;;;;;;19.08;8.73;;;;;;;;;;5041142;28;20060;-83
2023/02/08 04:12:47;;;;;;;19.23;8.63;;;;;;;;;;5036287;28;20354;-83
2023/02/08 04:15:13;;;;;;;18.70;8.35;;;;;;;;;;5042817;28;20037;-83
2023/02/08 04:17:41;;;;;;;16.88;8.18;;;;;;;;;;5029382;28;20231;-83
2023/02/08 04:20:07;;;;;;;25.30;8.60;;;;;;;;;;5036129;28;20041;-83
2023/02/08 04:22:33;;;;;;;14.85;8.30;;;;;;;;;;5040163;28;20190;-83
2023/02/08 04:24:59;;;;;;;15.00;8.38;;;;;;;;;;5041594;28;20034;-83
2023/02/08 04:27:25;;;;;;;17.35;9.13;;;;;;;;;;5034569;28;20506;-83
2023/02/08 04:29:51;;;;;;;23.75;8.73;;;;;;;;;;5033200;28;20033;-83
2023/02/08 04:32:17;;;;;;;17.80;8.10;;;;;;;;;;5038354;28;20082;-82
2023/02/08 04:34:43;;;;;;;17.05;8.32;;;;;;;;;;5044151;28;20046;-84
2023/02/08 04:37:10;;;;;;;17.77;8.60;;;;;;;;;;5045858;28;20104;-83
2023/02/08 04:39:36;;;;;;;14.88;7.85;;;;;;;;;;5031353;28;20045;-83
2023/02/08 04:42:02;;;;;;;12.68;7.40;;;;;;;;;;5034990;28;20061;-82
2023/02/08 04:44:31;;;;;;;17.60;7.70;;;;;;;;;;5044937;28;20439;-83
2023/02/08 04:46:57;;;;;;;13.65;7.50;;;;;;;;;;5033360;28;21192;-84
2023/02/08 04:49:23;;;;;;;15.45;8.48;;;;;;;;;;5030785;28;20025;-83
2023/02/08 04:51:51;;;;;;;17.75;8.52;;;;;;;;;;5036434;28;20048;-84
2023/02/08 04:54:17;;;;;;;20.58;8.45;;;;;;;;;;5040536;28;20029;-83
2023/02/08 04:56:43;;;;;;;15.13;7.32;;;;;;;;;;5033435;28;20037;-84
2023/02/08 04:59:09;;;;;;;15.77;7.82;;;;;;;;;;5043175;28;20091;-83
2023/02/08 05:01:35;;;;;;;14.68;8.38;;;;;;;;;;5040141;28;20029;-82
2023/02/08 05:04:01;;;;;;;15.00;8.00;;;;;;;;;;5031198;28;20516;-84
2023/02/08 05:06:27;;;;;;;14.35;7.30;;;;;;;;;;5045872;28;20378;-84
2023/02/08 05:08:53;;;;;;;17.02;8.02;;;;;;;;;;5026084;28;20064;-84
2023/02/08 05:11:23;;;;;;;17.35;7.90;;;;;;;;;;5034694;28;20508;-84
2023/02/08 05:13:49;;;;;;;13.50;6.88;;;;;;;;;;5038241;28;20052;-83
2023/02/08 05:16:18;;;;;;;16.70;7.07;;;;;;;;;;5038778;28;20033;-83
2023/02/08 05:18:44;;;;;;;13.88;7.30;;;;;;;;;;5031135;28;20036;-83
2023/02/08 05:21:10;;;;;;;14.93;6.80;;;;;;;;;;5035755;28;20107;-82
2023/02/08 05:23:37;;;;;;;15.50;7.28;;;;;;;;;;5040294;28;20039;-83
2023/02/08 05:26:07;;;;;;;16.02;7.40;;;;;;;;;;5038511;28;20448;-84
2023/02/08 05:28:33;;;;;;;15.38;7.53;;;;;;;;;;5044554;28;20542;-84
2023/02/08 05:30:59;;;;;;;11.88;6.75;;;;;;;;;;5036322;28;20063;-84
2023/02/08 05:33:25;;;;;;;19.30;8.27;;;;;;;;;;5044548;28;20033;-84
2023/02/08 05:35:51;;;;;;;12.65;6.88;;;;;;;;;;5043001;28;20033;-84
2023/02/08 05:38:17;;;;;;;15.95;7.53;;;;;;;;;;5027801;28;20049;-84
2023/02/08 05:40:43;;;;;;;14.55;7.28;;;;;;;;;;5033949;28;20477;-85
2023/02/08 05:43:09;;;;;;;12.27;6.75;;;;;;;;;;5029347;28;20608;-83
2023/02/08 05:45:38;;;;;;;16.30;6.97;;;;;;;;;;5040167;28;20025;-83
2023/02/08 05:48:04;;;;;;;14.45;6.68;;;;;;;;;;5027127;28;20083;-84
2023/02/08 05:50:31;;;;;;;13.90;7.60;;;;;;;;;;5042733;28;20025;-86
2023/02/08 05:52:56;;;;;;;13.88;6.45;;;;;;;;;;5033267;28;20041;-84
2023/02/08 05:55:23;;;;;;;12.05;6.45;;;;;;;;;;5027521;28;20029;-84
2023/02/08 05:57:49;;;;;;;17.38;7.07;;;;;;;;;;5025984;28;20048;-86
2023/02/08 06:00:15;;;;;;;11.98;6.00;;;;;;;;;;5038380;28;20029;-85
2023/02/08 06:02:44;;;;;;;15.00;6.68;;;;;;;;;;5033639;28;20060;-85
2023/02/08 06:05:10;;;;;;;12.90;6.63;;;;;;;;;;5043807;28;20025;-83
2023/02/08 06:07:35;;;;;;;10.48;5.68;;;;;;;;;;5040492;28;20025;-83
2023/02/08 06:10:02;;;;;;;12.45;6.72;;;;;;;;;;5030832;28;20025;-84
2023/02/08 06:12:28;;;;;;;14.25;6.75;;;;;;;;;;5034686;28;20124;-85
2023/02/08 06:14:54;;;;;;;11.68;6.13;;;;;;;;;;5040437;28;20432;-83
2023/02/08 06:17:19;;;;;;;10.38;5.82;;;;;;;;;;5044890;28;20044;-84
2023/02/08 06:19:45;;;;;;;12.25;6.35;;;;;;;;;;5034413;28;20033;-84
2023/02/08 06:22:11;;;;;;;10.40;5.57;;;;;;;;;;5027236;28;20021;-83
2023/02/08 06:24:37;;;;;;;10.95;6.20;;;;;;;;;;5029287;28;20440;-83
2023/02/08 06:27:03;;;;;;;16.33;6.65;;;;;;;;;;5034082;28;20428;-84
2023/02/08 06:29:29;;;;;;;10.90;6.03;;;;;;;;;;5044257;28;20392;-83
2023/02/08 06:31:55;;;;;;;12.63;6.25;;;;;;;;;;5029282;28;20211;-84
2023/02/08 06:34:22;;;;;;;11.43;6.10;;;;;;;;;;5041159;28;20037;-84
2023/02/08 06:36:48;;;;;;;9.50;6.07;;;;;;;;;;5038423;28;20037;-84
2023/02/08 06:39:14;;;;;;;10.88;5.25;;;;;;;;;;5030981;28;20042;-82
2023/02/08 06:41:43;;;;;;;13.30;6.20;;;;;;;;;;5036446;28;20277;-83
2023/02/08 06:44:09;;;;;;;12.90;6.43;;;;;;;;;;5039301;28;20033;-84
2023/02/08 06:46:35;;;;;;;9.77;5.55;;;;;;;;;;5034547;28;20030;-84
2023/02/08 06:49:16;;;;;;;11.73;5.80;;;;;;;;;;5030261;28;20026;-87
2023/02/08 06:51:42;;;;;;;10.52;5.80;;;;;;;;;;5028763;28;20389;-86
2023/02/08 06:54:08;;;;;;;13.70;6.07;;;;;;;;;;5023391;28;20113;-82
2023/02/08 06:56:34;;;;;;;10.75;5.18;;;;;;;;;;5037974;28;20037;-78
2023/02/08 06:59:00;;;;;;;13.32;5.38;;;;;;;;;;5048067;28;20028;-82
2023/02/08 07:01:26;;;;;;;10.75;5.63;;;;;;;;;;5048265;28;20115;-83
2023/02/08 07:03:52;;;;;;;11.13;4.75;;;;;;;;;;5050531;28;20028;-84
2023/02/08 07:06:19;;;;;;;10.75;5.50;;;;;;;;;;5050116;28;20388;-85
2023/02/08 07:08:46;;;;;;;11.93;6.20;;;;;;;;;;5049948;28;20465;-85
2023/02/08 07:11:16;;;;;;;13.90;5.97;;;;;;;;;;5045105;28;20025;-84
2023/02/08 07:13:42;;;;;;;12.30;5.22;;;;;;;;;;5040627;28;21602;-85
2023/02/08 07:16:09;;;;;;;11.48;5.63;;;;;;;;;;5038827;28;20674;-74
2023/02/08 07:18:35;;;;;;;9.65;5.38;;;;;;;;;;5036463;28;20537;-75
2023/02/08 07:21:02;;;;;;;16.40;5.70;;;;;;;;;;5038321;28;20801;-77
2023/02/08 07:23:28;;;;;;;11.52;5.72;;;;;;;;;;5030608;28;20028;-77
2023/02/08 07:25:58;;;;;;;11.32;5.30;;;;;;;;;;5027594;28;20025;-78
2023/02/08 07:28:24;;;;;;;9.25;5.22;;;;;;;;;;5033260;28;20020;-82
2023/02/08 07:30:50;;;;;;;9.75;5.35;;;;;;;;;;5030348;28;20041;-87
2023/02/08 07:33:16;;;;;;;10.52;5.32;;;;;;;;;;5029193;28;20082;-80
2023/02/08 07:35:42;;;;;;;9.05;5.18;;;;;;;;;;5035705;28;20037;-80
2023/02/08 07:38:08;;;;;;;11.20;5.07;;;;;;;;;;5039095;28;20032;-76
2023/02/08 07:40:40;;;;;;;10.65;4.68;;;;;;;;;;5029014;28;20057;-85
2023/02/08 07:43:06;;;;;;;10.80;5.32;;;;;;;;;;5038437;28;20045;-84
2023/02/08 07:45:33;;;;;;;8.68;5.22;;;;;;;;;;5029227;28;20369;-82
2023/02/08 07:47:59;;;;;;;13.45;5.28;;;;;;;;;;5027156;28;20300;-79
2023/02/08 07:50:25;;;;;;;10.70;5.00;;;;;;;;;;5028397;28;20571;-82
2023/02/08 07:52:51;;;;;;;9.57;4.93;;;;;;;;;;5027358;28;20044;-85
2023/02/08 07:55:17;;;;;;;8.95;4.95;;;;;;;;;;5034769;28;20485;-83
2023/02/08 07:57:44;;;;;;;8.13;4.70;;;;;;;;;;5029318;28;20033;-83
2023/02/08 08:00:13;;;;;;;9.90;5.28;;;;;;;;;;5031493;28;20037;-82
2023/02/08 08:02:39;;;;;;;10.75;5.05;;;;;;;;;;5028820;28;20227;-82
2023/02/08 08:05:06;;;;;;;13.35;4.80;;;;;;;;;;5033292;28;20043;-82
2023/02/08 08:07:32;;;;;;;9.88;5.05;;;;;;;;;;5037609;28;20124;-82
2023/02/08 08:09:57;;;;;;;9.70;4.63;;;;;;;;;;5028359;28;20488;-83
2023/02/08 08:12:23;;;;;;;10.77;4.53;;;;;;;;;;5027966;28;20030;-83
2023/02/08 08:14:50;;;;;;;9.45;4.95;;;;;;;;;;5031923;28;20464;-82
2023/02/08 08:17:16;;;;;;;11.18;4.65;;;;;;;;;;5038623;28;20036;-83
2023/02/08 08:19:42;;;;;;;9.18;4.68;;;;;;;;;;5023317;28;20089;-82
2023/02/08 08:22:08;;;;;;;14.02;4.70;;;;;;;;;;5034951;28;20037;-84
2023/02/08 08:24:34;;;;;;;8.50;4.35;;;;;;;;;;5033117;28;20081;-83
2023/02/08 08:27:01;;;;;;;10.80;5.35;;;;;;;;;;5031599;28;20115;-82
2023/02/08 08:29:27;;;;;;;9.10;4.75;;;;;;;;;;5023686;28;20064;-82
2023/02/08 08:31:53;;;;;;;8.45;4.68;;;;;;;;;;5025846;28;20128;-83
2023/02/08 08:34:19;;;;;;;9.02;4.50;;;;;;;;;;5031089;28;20041;-83
2023/02/08 08:36:45;;;;;;;8.60;4.53;;;;;;;;;;5044308;28;20056;-82
2023/02/08 08:39:11;;;;;;;8.27;4.57;;;;;;;;;;5030178;28;20075;-83
2023/02/08 08:41:37;;;;;;;10.30;4.72;;;;;;;;;;5027771;28;20097;-83
2023/02/08 08:44:03;;;;;;;10.30;4.38;;;;;;;;;;5030982;28;20037;-83
2023/02/08 08:46:29;;;;;;;7.25;3.85;;;;;;;;;;5042077;28;20036;-82
2023/02/08 08:49:03;;;;;;;7.68;4.43;;;;;;;;;;5038251;28;20126;-82
2023/02/08 08:51:33;;;;;;;8.13;3.75;;;;;;;;;;5029555;28;20045;-82
2023/02/08 08:53:59;;;;;;;8.98;4.15;;;;;;;;;;5027849;28;20052;-83
2023/02/08 08:56:25;;;;;;;13.98;4.68;;;;;;;;;;5026467;28;20037;-83
2023/02/08 08:58:51;;;;;;;7.57;4.45;;;;;;;;;;5036525;28;20044;-83
2023/02/08 09:01:17;;;;;;;11.95;4.95;;;;;;;;;;5036974;28;20025;-83
2023/02/08 09:03:43;;;;;;;12.68;4.40;;;;;;;;;;5036590;28;20496;-84
2023/02/08 09:06:09;;;;;;;8.88;4.07;;;;;;;;;;5033113;28;21730;-83
2023/02/08 09:08:42;;;;;;;7.43;4.18;;;;;;;;;;5027381;28;20075;-84
2023/02/08 09:11:10;;;;;;;6.68;4.18;;;;;;;;;;5026488;28;20052;-80
2023/02/08 09:13:36;;;;;;;6.95;4.20;;;;;;;;;;5028046;28;20025;-80
2023/02/08 09:16:06;;;;;;;7.78;3.95;;;;;;;;;;5029425;28;20500;-80
2023/02/08 09:18:32;;;;;;;10.40;4.45;;;;;;;;;;5026452;28;20043;-77
2023/02/08 09:20:58;;;;;;;8.25;3.97;;;;;;;;;;5033432;28;20029;-80
2023/02/08 09:23:24;;;;;;;9.10;3.92;;;;;;;;;;5040533;28;20032;-80
2023/02/08 09:25:50;;;;;;;8.13;4.40;;;;;;;;;;5027894;28;20039;-80
2023/02/08 09:28:31;;;;;;;8.27;4.47;;;;;;;;;;5045689;28;20021;-80
2023/02/08 09:31:00;;;;;;;10.55;3.83;;;;;;;;;;5042613;28;20112;-80
2023/02/08 09:33:31;;;;;;;8.93;4.00;;;;;;;;;;5027651;28;20025;-80
2023/02/08 09:35:56;;;;;;;7.70;4.13;;;;;;;;;;5026951;28;20025;-80
2023/02/08 09:38:22;;;;;;;8.10;4.80;;;;;;;;;;5036686;28;20397;-80
2023/02/08 09:41:02;;;;;;;8.65;4.20;;;;;;;;;;5045606;28;20432;-80
2023/02/08 09:43:35;;;;;;;8.77;4.40;;;;;;;;;;5032502;28;20057;-80
2023/02/08 09:46:05;;;;;;;9.40;4.50;;;;;;;;;;5027140;28;20099;-80
2023/02/08 09:48:33;;;;;;;9.93;4.00;;;;;;;;;;5027857;28;20033;-80
2023/02/08 09:51:18;;;;;;;10.73;4.38;;;;;;;;;;5026516;28;20029;-79
2023/02/08 09:53:49;;;;;;;10.80;4.35;;;;;;;;;;5027197;28;20080;-79
2023/02/08 09:56:16;;;;;;;11.68;4.45;;;;;;;;;;5026865;28;20038;-79
2023/02/08 09:58:43;;;;;;;8.88;4.75;;;;;;;;;;5026817;28;20040;-79
2023/02/08 10:01:18;;;;;;;8.65;4.15;;;;;;;;;;5037766;28;20072;-79
2023/02/08 10:03:44;;;;;;;11.60;5.05;;;;;;;;;;5038965;28;20040;-79
2023/02/08 10:06:18;;;;;;;10.30;4.50;;;;;;;;;;5045930;28;20170;-79
2023/02/08 10:08:45;;;;;;;9.52;4.13;;;;;;;;;;5046044;28;20096;-79
2023/02/08 10:11:20;;;;;;;12.27;4.35;;;;;;;;;;5046021;28;20280;-79
2023/02/08 10:13:56;;;;;;;7.93;4.40;;;;;;;;;;5046220;28;20086;-80
2023/02/08 10:16:36;;;;;;;9.73;4.68;;;;;;;;;;5050756;28;20024;-80
2023/02/08 10:19:02;;;;;;;9.45;4.00;;;;;;;;;;5050940;28;20047;-80
2023/02/08 10:21:36;;;;;;;9.60;4.65;;;;;;;;;;5050830;28;20028;-80
2023/02/08 10:24:11;;;;;;;9.93;4.35;;;;;;;;;;5045615;28;20039;-79
2023/02/08 10:26:45;;;;;;;8.93;4.35;;;;;;;;;;5042880;28;20025;-80
2023/02/08 10:29:26;;;;;;;11.77;4.28;;;;;;;;;;5034998;28;20086;-80
2023/02/08 10:32:14;;;;;;;7.38;4.32;;;;;;;;;;5038783;28;20131;-80
2023/02/08 10:34:43;;;;;;;9.07;3.83;;;;;;;;;;5039613;28;20086;-80
2023/02/08 10:37:14;;;;;;;10.90;4.60;;;;;;;;;;5049238;28;20048;-79
2023/02/08 10:39:41;;;;;;;11.02;4.72;;;;;;;;;;5048639;28;20620;-80
2023/02/08 10:42:12;;;;;;;10.63;4.03;;;;;;;;;;5046592;28;20128;-79
2023/02/08 10:44:56;;;;;;;10.32;4.00;;;;;;;;;;5031478;28;20481;-79
2023/02/08 10:47:41;;;;;;;9.88;4.47;;;;;;;;;;5049122;28;20041;-80
2023/02/08 10:50:15;;;;;;;11.52;4.30;;;;;;;;;;5049874;28;20489;-80
2023/02/08 10:52:41;;;;;;;9.15;4.15;;;;;;;;;;5050082;28;20116;-80
2023/02/08 10:55:43;;;;;;;7.78;4.47;;;;;;;;;;5043219;28;20036;-80
2023/02/08 10:58:13;;;;;;;8.63;4.35;;;;;;;;;;5029885;28;20469;-79
2023/02/08 11:00:41;;;;;;;7.70;4.40;;;;;;;;;;5031061;28;20045;-80
2023/02/08 11:03:20;;;;;;;7.47;4.22;;;;;;;;;;5029715;28;20029;-80
2023/02/08 11:05:46;;;;;;;9.45;4.25;;;;;;;;;;5031168;28;20033;-80
2023/02/08 11:08:18;;;;;;;9.45;4.53;;;;;;;;;;5029639;28;20109;-80
2023/02/08 11:10:54;;;;;;;9.50;4.43;;;;;;;;;;5029723;28;20482;-80
2023/02/08 11:13:20;;;;;;;11.55;4.55;;;;;;;;;;5046503;28;20146;-80
2023/02/08 11:15:51;;;;;;;9.77;4.35;;;;;;;;;;5049788;28;20033;-80
2023/02/08 11:18:22;;;;;;;10.98;4.32;;;;;;;;;;5040229;28;20047;-81
2023/02/08 11:20:48;;;;;;;;;;;;;;;;;;5049792;28;20389;-80
2023/02/08 11:23:20;;;;;;;9.27;4.30;;;;;;;;;;5035718;28;19913;-80
2023/02/08 11:25:46;;;;;;;12.48;4.13;;;;;;;;;;5041249;28;20116;-80
2023/02/08 11:28:23;;;;;;;10.15;4.32;;;;;;;;;;5034351;28;20144;-79
2023/02/08 11:30:56;;;;;;;11.02;5.15;;;;;;;;;;5039022;28;20061;-80
2023/02/08 11:33:22;;;;;;;9.70;4.50;;;;;;;;;;5034150;28;20108;-79
2023/02/08 11:36:05;;;;;;;11.20;4.53;;;;;;;;;;5031498;28;20099;-79
2023/02/08 11:38:33;;;;;;;11.30;4.72;;;;;;;;;;5034815;28;20026;-80
2023/02/08 11:41:01;;;;;;;8.27;4.25;;;;;;;;;;5041258;28;20091;-79
2023/02/08 11:43:31;;;;;;;11.75;4.05;;;;;;;;;;5040962;28;20033;-80
2023/02/08 11:45:58;;;;;;;8.73;4.37;;;;;;;;;;5032204;28;20079;-81
2023/02/08 11:48:26;;;;;;;9.45;4.38;;;;;;;;;;5029100;28;20588;-81
2023/02/08 11:50:57;;;;;;;7.47;4.60;;;;;;;;;;5029170;28;20112;-80
2023/02/08 11:53:26;;;;;;;;;;;;;;;;;;5035944;28;20087;-80
2023/02/08 11:56:03;;;;;;;8.10;4.22;;;;;;;;;;5041974;28;20288;-80
2023/02/08 11:58:29;;;;;;;8.13;4.38;;;;;;;;;;5041223;28;20033;-80
2023/02/08 12:01:01;;;;;;;8.07;4.18;;;;;;;;;;5028619;28;20493;-80
2023/02/08 12:03:32;;;;;;;9.00;4.70;;;;;;;;;;5030104;28;20026;-80
2023/02/08 12:06:00;;;;;;;;;;;;;;;;;;5033734;28;20017;-83
2023/02/08 12:08:31;;;;;;;10.05;3.92;;;;;;;;;;5032027;28;20219;-80
2023/02/08 12:11:07;;;;;;;10.88;4.07;;;;;;;;;;5036862;28;20025;-80
2023/02/08 12:14:08;;;;;;;10.18;4.10;;;;;;;;;;5031347;28;20029;-80
2023/02/08 12:16:43;;;;;;;7.40;4.22;;;;;;;;;;4958997;28;20094;-79
2023/02/08 12:19:27;;;;;;;9.40;4.13;;;;;;;;;;5028922;28;20132;-79
2023/02/08 12:22:14;;;;;;;8.23;3.92;;;;;;;;;;5046849;28;20052;-79
2023/02/08 12:24:57;;;;;;;10.70;4.22;;;;;;;;;;5040707;28;20124;-79
2023/02/08 12:27:34;;;;;;;8.45;4.20;;;;;;;;;;5031044;28;20043;-80
2023/02/08 12:30:07;;;;;;;10.55;4.00;;;;;;;;;;5031410;28;20174;-79
2023/02/08 12:32:55;;;;;;;9.88;4.40;;;;;;;;;;5029648;28;20544;-79
2023/02/08 12:35:41;;;;;;;7.70;4.38;;;;;;;;;;5037941;28;20063;-80
2023/02/08 12:41:15;;;;;;;9.77;3.83;;;;;;;;;;5008290;28;20095;-80
2023/02/08 12:43:45;;;;;;;7.15;4.60;;;;;;;;;;5035334;28;20036;-80
2023/02/08 12:46:38;;;;;;;6.43;4.03;;;;;;;;;;5032415;28;20033;-80
2023/02/08 12:49:16;;;;;;;7.40;4.13;;;;;;;;;;5040322;28;20049;-80
2023/02/08 12:51:42;;;;;;;8.15;3.97;;;;;;;;;;5045890;28;20707;-80
2023/02/08 12:54:28;;;;;;;8.90;4.60;;;;;;;;;;5027503;28;20033;-80
2023/02/08 12:56:54;;;;;;;8.88;4.38;;;;;;;;;;5027102;28;20123;-80
2023/02/08 12:59:26;;;;;;;9.52;4.57;;;;;;;;;;5027862;28;20448;-80
2023/02/08 13:01:56;;;;;;;9.75;4.68;;;;;;;;;;5042444;28;20044;-78
2023/02/08 13:04:26;;;;;;;10.10;4.38;;;;;;;;;;5036665;28;20555;-80
2023/02/08 13:06:55;;;;;;;6.07;3.75;;;;;;;;;;5032531;28;20033;-80
2023/02/08 13:09:33;;;;;;;8.85;4.35;;;;;;;;;;5042418;28;20029;-80
2023/02/08 13:11:59;;;;;;;8.15;4.22;;;;;;;;;;5028830;28;20079;-78
2023/02/08 13:14:31;;;;;;;8.85;4.28;;;;;;;;;;5026920;28;20025;-79
2023/02/08 13:17:33;;;;;;;8.38;4.32;;;;;;;;;;5026932;28;20049;-79
2023/02/08 13:20:01;;;;;;;6.78;3.75;;;;;;;;;;4973326;28;20037;-79
2023/02/08 13:22:31;;;;;;;8.65;4.60;;;;;;;;;;5024759;28;20495;-78
2023/02/08 13:24:57;;;;;;;9.38;3.80;;;;;;;;;;5029405;28;20067;-78
2023/02/08 13:27:23;;;;;;;8.70;4.13;;;;;;;;;;5028657;28;20029;-78
2023/02/08 13:29:51;;;;;;;6.97;3.80;;;;;;;;;;5038063;28;20791;-78
2023/02/08 13:32:21;;;;;;;10.48;4.50;;;;;;;;;;5028493;28;20029;-78
2023/02/08 13:34:52;;;;;;;9.32;3.97;;;;;;;;;;5027403;28;20053;-79
2023/02/08 13:37:18;;;;;;;;;;;;;;;;;;5027823;28;20040;-78
2023/02/08 13:39:45;;;;;;;7.05;4.00;;;;;;;;;;5028779;28;19956;-78
2023/02/08 13:42:26;;;;;;;6.28;4.07;;;;;;;;;;5030342;28;20041;-78
2023/02/08 13:44:54;;;;;;;7.47;4.35;;;;;;;;;;5031301;28;20075;-79
2023/02/08 13:47:31;;;;;;;7.88;3.85;;;;;;;;;;5036362;28;20147;-77
2023/02/08 13:50:08;;;;;;;7.03;3.90;;;;;;;;;;5043189;28;20087;-77
2023/02/08 13:52:37;;;;;;;7.10;4.22;;;;;;;;;;5044499;28;20513;-79
2023/02/08 13:55:21;;;;;;;7.95;4.13;;;;;;;;;;5029116;28;20075;-79
2023/02/08 13:57:50;;;;;;;9.43;4.35;;;;;;;;;;5029818;28;20033;-79
2023/02/08 14:00:24;;;;;;;5.95;3.72;;;;;;;;;;5026865;28;20030;-79
2023/02/08 14:03:08;;;;;;;9.18;4.00;;;;;;;;;;5026051;28;20037;-79
2023/02/08 14:05:43;;;;;;;10.48;5.20;;;;;;;;;;5029972;28;20108;-79
2023/02/08 14:08:18;;;;;;;8.70;3.92;;;;;;;;;;5033451;28;20018;-78
2023/02/08 14:10:50;;;;;;;7.22;3.83;;;;;;;;;;5030989;28;20025;-78
2023/02/08 14:13:34;;;;;;;9.88;4.70;;;;;;;;;;5030459;28;20341;-78
2023/02/08 14:16:23;;;;;;;8.80;4.43;;;;;;;;;;5008582;28;20447;-78
2023/02/08 14:18:53;;;;;;;9.48;4.30;;;;;;;;;;5044122;28;20039;-79
2023/02/08 14:21:29;;;;;;;8.00;4.18;;;;;;;;;;5033067;28;20065;-79
2023/02/08 14:24:03;;;;;;;8.18;3.95;;;;;;;;;;5030946;28;20021;-78
2023/02/08 14:26:30;;;;;;;10.55;4.70;;;;;;;;;;5026233;28;20300;-76
2023/02/08 14:28:58;;;;;;;6.57;4.00;;;;;;;;;;5040448;28;20116;-77
2023/02/08 14:31:35;;;;;;;8.00;4.43;;;;;;;;;;5025074;28;20516;-76
2023/02/08 14:34:01;;;;;;;10.40;3.88;;;;;;;;;;5027273;28;20028;-76
2023/02/08 14:36:32;;;;;;;10.23;4.15;;;;;;;;;;5030052;28;20499;-76
2023/02/08 14:39:17;;;;;;;7.40;4.60;;;;;;;;;;5035239;28;20026;-76
2023/02/08 14:41:45;;;;;;;8.93;4.32;;;;;;;;;;5031370;28;20050;-76
2023/02/08 14:44:30;;;;;;;8.57;4.43;;;;;;;;;;5027385;28;20079;-77
2023/02/08 14:46:56;;;;;;;6.40;3.92;;;;;;;;;;5037301;28;20029;-76
2023/02/08 14:49:25;;;;;;;7.88;4.07;;;;;;;;;;5026742;28;20466;-76
2023/02/08 14:52:02;;;;;;;11.75;4.30;;;;;;;;;;5026146;28;20112;-76
2023/02/08 14:54:37;;;;;;;7.63;3.85;;;;;;;;;;5027383;28;20029;-76
2023/02/08 14:57:22;;;;;;;7.88;3.78;;;;;;;;;;5038486;28;20128;-76
2023/02/08 14:59:48;;;;;;;7.78;3.88;;;;;;;;;;5034631;28;20033;-76
2023/02/08 15:02:19;;;;;;;7.70;3.97;;;;;;;;;;5035443;28;20052;-72